Time;durP1;ratioP1;P1;durP2;ratioP2;P2;SDS_P1;SDS_P2;PMS_P1;PMS_P2;Temp;Humidity;BMP_temperature;BMP_pressure;BME280_temperature;BME280_humidity;BME280_pressure;Samples;Min_cycle;Max_cycle;Signal;HPM_P1;HPM_P2
2023/04/16 00:00:02;;;;;;;6.50;3.35;;;21.30;38.40;;;;;;5052598;28;20448;-52
2023/04/16 00:02:36;;;;;;;4.82;2.83;;;21.30;38.40;;;;;;5051961;28;20029;-52
2023/04/16 00:05:02;;;;;;;4.45;2.83;;;21.30;38.40;;;;;;5053196;28;20115;-50
2023/04/16 00:07:28;;;;;;;4.03;2.72;;;21.30;38.50;;;;;;5050898;28;20120;-49
2023/04/16 00:09:54;;;;;;;5.38;2.75;;;21.30;38.50;;;;;;5050700;28;20427;-52
2023/04/16 00:12:20;;;;;;;5.00;3.05;;;21.20;38.50;;;;;;5051761;28;20380;-48
2023/04/16 00:14:46;;;;;;;4.45;2.80;;;21.20;38.50;;;;;;5047758;28;20025;-51
2023/04/16 00:17:12;;;;;;;5.15;3.10;;;21.30;38.50;;;;;;5052018;28;20071;-49
2023/04/16 00:19:38;;;;;;;4.55;2.67;;;21.30;38.60;;;;;;5047329;28;20044;-48
2023/04/16 00:22:03;;;;;;;4.97;2.85;;;21.30;39.20;;;;;;5050558;28;20021;-50
2023/04/16 00:24:29;;;;;;;4.07;2.50;;;21.20;38.50;;;;;;5051412;28;20437;-52
2023/04/16 00:26:55;;;;;;;4.35;2.60;;;21.30;38.60;;;;;;5051770;28;20072;-54
2023/04/16 00:29:21;;;;;;;5.15;2.80;;;21.20;38.60;;;;;;5047038;28;20033;-55
2023/04/16 00:31:48;;;;;;;5.05;2.65;;;21.30;38.70;;;;;;5068691;28;20037;-53
2023/04/16 00:34:13;;;;;;;5.00;2.25;;;21.20;38.60;;;;;;5051264;28;20025;-52
2023/04/16 00:36:39;;;;;;;4.28;2.60;;;21.20;38.70;;;;;;5051906;28;20079;-52
2023/04/16 00:39:05;;;;;;;3.90;2.45;;;21.20;38.70;;;;;;5052263;28;20523;-53
2023/04/16 00:41:31;;;;;;;5.85;2.90;;;21.20;38.80;;;;;;5050037;28;20031;-50
2023/04/16 00:43:57;;;;;;;4.15;2.72;;;21.20;38.80;;;;;;5047554;28;20384;-51
2023/04/16 00:46:24;;;;;;;5.32;2.95;;;21.20;38.80;;;;;;5050842;28;20036;-52
2023/04/16 00:48:51;;;;;;;5.20;2.85;;;21.20;38.80;;;;;;5050785;28;20037;-51
2023/04/16 00:51:18;;;;;;;3.67;2.63;;;21.20;38.90;;;;;;5051013;28;20021;-53
2023/04/16 00:53:45;;;;;;;5.40;2.78;;;21.20;39.50;;;;;;5050017;28;20033;-53
2023/04/16 00:56:12;;;;;;;5.45;2.95;;;21.20;38.90;;;;;;5049091;28;20040;-51
2023/04/16 00:58:38;;;;;;;5.15;2.90;;;21.20;38.90;;;;;;5050935;28;20120;-51
2023/04/16 01:01:04;;;;;;;4.20;2.50;;;21.20;39.00;;;;;;5048089;28;20360;-52
2023/04/16 01:03:42;;;;;;;5.28;2.85;;;21.20;39.00;;;;;;5048094;28;20707;-52
2023/04/16 01:06:08;;;;;;;3.75;2.45;;;21.20;39.00;;;;;;5047831;28;20025;-50
2023/04/16 01:08:35;;;;;;;3.95;2.80;;;21.20;39.10;;;;;;5048736;28;20048;-53
2023/04/16 01:11:01;;;;;;;4.25;2.50;;;21.20;39.10;;;;;;5050163;28;20028;-50
2023/04/16 01:13:27;;;;;;;5.10;2.72;;;21.20;39.10;;;;;;5049184;28;20029;-52
2023/04/16 01:15:53;;;;;;;5.65;2.78;;;21.20;39.20;;;;;;5049461;28;20044;-51
2023/04/16 01:18:20;;;;;;;4.72;2.97;;;21.20;39.20;;;;;;5050867;28;20036;-53
2023/04/16 01:20:47;;;;;;;4.85;2.85;;;21.20;39.30;;;;;;5050380;28;20040;-53
2023/04/16 01:23:13;;;;;;;5.20;3.03;;;21.20;39.30;;;;;;5050713;28;20104;-51
2023/04/16 01:25:39;;;;;;;5.35;2.92;;;21.20;39.30;;;;;;5051616;28;20158;-48
2023/04/16 01:28:06;;;;;;;4.07;2.72;;;21.20;39.30;;;;;;5048219;28;20458;-50
2023/04/16 01:30:32;;;;;;;5.40;2.60;;;21.20;39.40;;;;;;5051786;28;20175;-52
2023/04/16 01:33:10;;;;;;;5.40;2.63;;;21.10;39.30;;;;;;5047456;28;20025;-53
2023/04/16 01:35:37;;;;;;;5.75;2.92;;;21.20;39.40;;;;;;5050815;28;20394;-51
2023/04/16 01:38:04;;;;;;;5.43;2.70;;;21.20;39.40;;;;;;5046324;28;20479;-51
2023/04/16 01:40:30;;;;;;;7.50;3.17;;;21.20;39.40;;;;;;5049922;28;20029;-51
2023/04/16 01:42:56;;;;;;;4.97;2.75;;;21.20;39.40;;;;;;5044584;28;20029;-54
2023/04/16 01:45:22;;;;;;;6.35;3.15;;;21.10;39.30;;;;;;5047215;28;20475;-49
2023/04/16 01:47:50;;;;;;;4.57;2.90;;;21.20;39.40;;;;;;5049862;28;20021;-52
2023/04/16 01:50:16;;;;;;;4.72;2.47;;;21.10;39.40;;;;;;5045488;28;20024;-53
2023/04/16 01:52:42;;;;;;;4.82;2.72;;;21.10;39.40;;;;;;5050051;28;20049;-52
2023/04/16 01:55:09;;;;;;;4.53;2.83;;;21.10;39.40;;;;;;5050032;28;20397;-51
2023/04/16 01:57:35;;;;;;;5.57;2.65;;;21.10;39.40;;;;;;5050169;28;20694;-54
2023/04/16 02:00:02;;;;;;;5.95;3.47;;;21.20;39.50;;;;;;5047513;28;20098;-48
2023/04/16 02:02:30;;;;;;;5.55;3.35;;;21.20;39.50;;;;;;5047087;28;20025;-50
2023/04/16 02:04:56;;;;;;;5.68;3.30;;;21.10;39.50;;;;;;5050692;28;20064;-49
2023/04/16 02:07:23;;;;;;;4.38;2.78;;;21.10;39.50;;;;;;5048097;28;20523;-50
2023/04/16 02:09:50;;;;;;;6.03;3.63;;;21.10;39.50;;;;;;5048606;28;20025;-50
2023/04/16 02:12:16;;;;;;;7.05;3.25;;;21.10;39.50;;;;;;5047096;28;20403;-55
2023/04/16 02:14:42;;;;;;;5.78;3.08;;;21.10;39.50;;;;;;5048238;28;20099;-52
2023/04/16 02:17:10;;;;;;;4.82;3.10;;;21.10;39.60;;;;;;5048998;28;20047;-57
2023/04/16 02:19:37;;;;;;;5.80;3.30;;;21.10;39.60;;;;;;5041582;28;20078;-51
2023/04/16 02:22:04;;;;;;;5.40;3.20;;;21.10;40.20;;;;;;5054450;28;20079;-54
2023/04/16 02:24:30;;;;;;;5.72;3.10;;;21.10;39.60;;;;;;5047133;28;20387;-54
2023/04/16 02:26:57;;;;;;;4.82;3.10;;;21.10;39.60;;;;;;5049608;28;20028;-54
2023/04/16 02:29:23;;;;;;;5.82;3.30;;;21.10;39.60;;;;;;5047942;28;21348;-53
2023/04/16 02:31:59;;;;;;;6.30;3.65;;;21.10;39.70;;;;;;5045245;28;20021;-53
2023/04/16 02:34:25;;;;;;;5.68;3.40;;;21.10;39.70;;;;;;5028324;28;20096;-48
2023/04/16 02:36:53;;;;;;;5.45;3.45;;;21.10;39.70;;;;;;5048617;28;20136;-53
2023/04/16 02:39:19;;;;;;;5.68;3.10;;;21.10;39.70;;;;;;5047785;28;20082;-48
2023/04/16 02:41:44;;;;;;;6.28;3.47;;;21.10;39.80;;;;;;5049091;28;20352;-54
2023/04/16 02:44:10;;;;;;;5.95;3.40;;;21.10;39.80;;;;;;5046834;28;20036;-51
2023/04/16 02:46:36;;;;;;;5.35;3.50;;;21.10;39.80;;;;;;5047264;28;20051;-53
2023/04/16 02:49:02;;;;;;;5.15;3.70;;;21.10;39.80;;;;;;5048338;28;20053;-55
2023/04/16 02:51:28;;;;;;;5.63;3.67;;;21.10;39.80;;;;;;5048141;28;20094;-53
2023/04/16 02:53:54;;;;;;;9.27;3.63;;;21.00;39.80;;;;;;5048398;28;20102;-53
2023/04/16 02:56:20;;;;;;;6.32;3.63;;;21.00;39.80;;;;;;5046879;28;20040;-51
2023/04/16 02:58:45;;;;;;;7.60;4.10;;;21.10;40.50;;;;;;5046399;28;20030;-55
2023/04/16 03:01:11;;;;;;;6.15;3.60;;;21.00;39.90;;;;;;5049013;28;20060;-50
2023/04/16 03:03:37;;;;;;;7.30;3.75;;;21.00;40.50;;;;;;5048217;28;20365;-51
2023/04/16 03:06:03;;;;;;;5.68;4.10;;;21.00;39.90;;;;;;5045629;28;20453;-55
2023/04/16 03:08:29;;;;;;;6.03;3.60;;;21.00;39.90;;;;;;5047101;28;20326;-53
2023/04/16 03:10:55;;;;;;;5.63;3.30;;;21.00;39.90;;;;;;5048990;28;20029;-53
2023/04/16 03:13:21;;;;;;;6.40;3.72;;;21.00;40.00;;;;;;5049496;28;20090;-52
2023/04/16 03:15:48;;;;;;;6.82;4.00;;;21.00;40.00;;;;;;5047357;28;20103;-55
2023/04/16 03:18:14;;;;;;;6.85;3.80;;;21.00;40.00;;;;;;5046280;28;20539;-51
2023/04/16 03:20:40;;;;;;;5.78;3.75;;;21.00;40.00;;;;;;5046288;28;20121;-50
2023/04/16 03:23:06;;;;;;;5.80;3.70;;;21.00;40.00;;;;;;5047548;28;20037;-52
2023/04/16 03:25:32;;;;;;;5.20;3.40;;;21.00;40.00;;;;;;5047846;28;20127;-55
2023/04/16 03:27:57;;;;;;;5.43;3.70;;;21.00;40.00;;;;;;5049991;28;20025;-53
2023/04/16 03:30:23;;;;;;;7.50;4.40;;;21.00;40.10;;;;;;5052703;28;20082;-52
2023/04/16 03:32:50;;;;;;;6.10;4.05;;;21.00;40.10;;;;;;5052794;28;20063;-50
2023/04/16 03:35:16;;;;;;;6.80;4.25;;;21.00;40.20;;;;;;5051599;28;20119;-52
2023/04/16 03:37:43;;;;;;;6.10;3.95;;;21.00;40.20;;;;;;5052442;28;20087;-52
2023/04/16 03:40:10;;;;;;;6.03;4.00;;;21.00;40.20;;;;;;5049134;28;20040;-52
2023/04/16 03:42:36;;;;;;;6.40;4.03;;;21.00;40.20;;;;;;5054437;28;20025;-51
2023/04/16 03:45:02;;;;;;;5.95;3.95;;;21.00;40.20;;;;;;5052650;28;20357;-55
2023/04/16 03:47:29;;;;;;;5.70;3.70;;;21.00;40.30;;;;;;5049765;28;20079;-54
2023/04/16 03:49:58;;;;;;;5.78;3.85;;;21.00;40.30;;;;;;5050480;28;20044;-51
2023/04/16 03:52:24;;;;;;;6.18;3.95;;;21.00;40.30;;;;;;5052784;28;20364;-53
2023/04/16 03:54:52;;;;;;;4.68;3.45;;;21.00;40.30;;;;;;5052264;28;20462;-52
2023/04/16 03:57:23;;;;;;;7.35;4.03;;;21.00;40.30;;;;;;5051363;28;20033;-53
2023/04/16 03:59:50;;;;;;;6.30;3.83;;;21.00;40.20;;;;;;5050945;28;20036;-51
2023/04/16 04:02:16;;;;;;;6.13;4.40;;;21.00;40.30;;;;;;5050768;28;20341;-54
2023/04/16 04:04:42;;;;;;;7.55;4.35;;;21.00;40.30;;;;;;5052037;28;20032;-51
2023/04/16 04:07:09;;;;;;;6.25;4.07;;;21.00;40.30;;;;;;5050867;28;20052;-49
2023/04/16 04:09:35;;;;;;;6.78;4.40;;;21.00;40.30;;;;;;5050839;28;20395;-53
2023/04/16 04:12:02;;;;;;;6.30;4.30;;;21.00;40.30;;;;;;5050524;28;20049;-51
2023/04/16 04:14:29;;;;;;;6.22;4.03;;;21.00;40.30;;;;;;5051912;28;20021;-52
2023/04/16 04:16:54;;;;;;;7.38;4.50;;;21.00;40.30;;;;;;5050600;28;20059;-53
2023/04/16 04:19:20;;;;;;;6.45;4.63;;;21.00;40.30;;;;;;5052459;28;20029;-53
2023/04/16 04:21:47;;;;;;;8.18;4.35;;;21.00;40.30;;;;;;5048519;28;20039;-52
2023/04/16 04:24:15;;;;;;;6.78;4.85;;;21.00;40.30;;;;;;5051181;28;20064;-51
2023/04/16 04:26:41;;;;;;;5.53;3.85;;;21.00;40.30;;;;;;5050030;28;20035;-52
2023/04/16 04:29:07;;;;;;;7.07;4.70;;;21.00;40.40;;;;;;5051367;28;20024;-55
2023/04/16 04:31:34;;;;;;;7.43;4.45;;;21.00;40.40;;;;;;5053154;28;20025;-55
2023/04/16 04:34:00;;;;;;;6.57;4.65;;;20.90;40.30;;;;;;5051441;28;20029;-56
2023/04/16 04:36:27;;;;;;;8.63;4.60;;;20.90;40.30;;;;;;5051144;28;20063;-51
2023/04/16 04:38:53;;;;;;;6.28;4.40;;;20.90;40.30;;;;;;5051132;28;20033;-50
2023/04/16 04:41:20;;;;;;;7.82;5.00;;;20.90;40.40;;;;;;5051642;28;20025;-48
2023/04/16 04:43:46;;;;;;;8.10;5.00;;;20.90;40.40;;;;;;5047325;28;20029;-49
2023/04/16 04:46:12;;;;;;;8.20;4.88;;;20.90;40.40;;;;;;5050221;28;20049;-51
2023/04/16 04:48:39;;;;;;;6.40;4.65;;;20.90;40.40;;;;;;5051109;28;20029;-51
2023/04/16 04:51:06;;;;;;;8.30;5.07;;;20.90;40.40;;;;;;5051773;28;20045;-52
2023/04/16 04:53:32;;;;;;;7.53;4.70;;;20.90;40.40;;;;;;5051336;28;20037;-52
2023/04/16 04:55:58;;;;;;;7.05;4.63;;;20.90;40.50;;;;;;5050539;28;20045;-54
2023/04/16 04:58:24;;;;;;;8.30;4.88;;;20.90;40.50;;;;;;5048368;28;20037;-52
2023/04/16 05:00:50;;;;;;;7.55;4.50;;;20.90;40.50;;;;;;5049683;28;20041;-53
2023/04/16 05:03:19;;;;;;;7.65;4.90;;;20.90;40.50;;;;;;5050084;28;20079;-50
2023/04/16 05:05:45;;;;;;;7.82;4.97;;;20.90;40.50;;;;;;5052322;28;20721;-53
2023/04/16 05:08:11;;;;;;;8.35;4.95;;;20.90;40.60;;;;;;5050713;28;20120;-51
2023/04/16 05:10:37;;;;;;;9.32;5.25;;;20.90;40.60;;;;;;5050595;28;20076;-52
2023/04/16 05:13:03;;;;;;;7.60;4.80;;;20.90;40.60;;;;;;5049532;28;20071;-52
2023/04/16 05:15:29;;;;;;;8.20;4.97;;;20.90;40.60;;;;;;5049447;28;20025;-51
2023/04/16 05:17:55;;;;;;;8.85;4.70;;;20.90;40.60;;;;;;5050410;28;20115;-50
2023/04/16 05:20:23;;;;;;;6.93;4.68;;;20.90;40.60;;;;;;5047797;28;20037;-50
2023/04/16 05:22:50;;;;;;;7.35;5.03;;;20.90;40.60;;;;;;5049464;28;20419;-51
2023/04/16 05:25:16;;;;;;;7.68;5.18;;;20.90;40.60;;;;;;5050506;28;20391;-48
2023/04/16 05:27:42;;;;;;;6.65;4.68;;;20.90;40.60;;;;;;5051397;28;20083;-53
2023/04/16 05:30:08;;;;;;;8.43;5.05;;;20.90;40.70;;;;;;5049433;28;20338;-53
2023/04/16 05:32:34;;;;;;;9.07;4.78;;;20.90;40.70;;;;;;5047230;28;20053;-51
2023/04/16 05:35:00;;;;;;;8.15;5.05;;;20.90;40.70;;;;;;5042959;28;20021;-50
2023/04/16 05:37:26;;;;;;;8.90;5.13;;;20.90;40.70;;;;;;5040958;28;20087;-52
2023/04/16 05:39:52;;;;;;;8.77;5.43;;;20.90;40.70;;;;;;5049935;28;20910;-51
2023/04/16 05:42:18;;;;;;;6.55;4.65;;;20.90;40.70;;;;;;5050065;28;20025;-53
2023/04/16 05:44:43;;;;;;;7.07;4.93;;;20.90;40.80;;;;;;5049093;28;20048;-52
2023/04/16 05:47:09;;;;;;;8.95;5.20;;;20.90;40.80;;;;;;5049023;28;20073;-51
2023/04/16 05:49:38;;;;;;;6.95;4.65;;;20.90;40.80;;;;;;5048339;28;20096;-53
2023/04/16 05:52:05;;;;;;;6.35;4.57;;;20.90;40.80;;;;;;5048685;28;20041;-51
2023/04/16 05:54:30;;;;;;;8.27;5.55;;;20.90;40.90;;;;;;5048586;28;20440;-53
2023/04/16 05:56:56;;;;;;;6.97;4.68;;;20.90;40.90;;;;;;5050132;28;20041;-52
2023/04/16 05:59:22;;;;;;;8.75;5.40;;;20.90;40.90;;;;;;5051185;28;20025;-51
2023/04/16 06:01:48;;;;;;;9.23;5.00;;;20.90;40.90;;;;;;5047433;28;20096;-54
2023/04/16 06:04:14;;;;;;;8.07;5.13;;;20.90;40.90;;;;;;5049392;28;20067;-51
2023/04/16 06:06:40;;;;;;;8.30;5.00;;;20.90;41.00;;;;;;5047816;28;20021;-55
2023/04/16 06:09:06;;;;;;;7.63;4.55;;;20.90;41.00;;;;;;5049678;28;20025;-54
2023/04/16 06:11:31;;;;;;;7.97;4.68;;;20.90;41.00;;;;;;5050856;28;20115;-50
2023/04/16 06:13:57;;;;;;;7.90;4.63;;;20.90;41.00;;;;;;5049787;28;20040;-50
2023/04/16 06:16:23;;;;;;;6.30;4.22;;;20.90;40.90;;;;;;5048498;28;20085;-51
2023/04/16 06:18:49;;;;;;;6.70;4.25;;;20.90;40.90;;;;;;5043034;28;20059;-56
2023/04/16 06:21:15;;;;;;;6.60;4.28;;;20.90;40.90;;;;;;5050455;28;20055;-54
2023/04/16 06:23:41;;;;;;;8.38;4.28;;;20.90;40.90;;;;;;5047770;28;20112;-55
2023/04/16 06:26:06;;;;;;;7.38;4.28;;;20.90;40.90;;;;;;5050091;28;20113;-54
2023/04/16 06:28:32;;;;;;;5.70;4.40;;;20.90;40.80;;;;;;5048913;28;20037;-52
2023/04/16 06:30:59;;;;;;;6.65;4.50;;;20.90;40.90;;;;;;5047043;28;20074;-57
2023/04/16 06:33:25;;;;;;;7.00;4.50;;;20.90;40.90;;;;;;5048492;28;20032;-54
2023/04/16 06:35:51;;;;;;;7.45;4.72;;;20.90;40.90;;;;;;5045164;28;20025;-54
2023/04/16 06:38:17;;;;;;;6.90;4.00;;;20.80;40.80;;;;;;5039111;28;20053;-53
2023/04/16 06:40:43;;;;;;;6.60;4.50;;;20.80;40.90;;;;;;5040640;28;20126;-50
2023/04/16 06:43:08;;;;;;;6.50;4.03;;;20.80;40.90;;;;;;5046996;28;20051;-51
2023/04/16 06:45:35;;;;;;;7.25;4.55;;;20.80;40.90;;;;;;5048990;28;20033;-51
2023/04/16 06:48:02;;;;;;;8.27;4.20;;;20.80;41.00;;;;;;5046174;28;20036;-49
2023/04/16 06:50:28;;;;;;;7.15;4.20;;;20.80;41.00;;;;;;5048055;28;20028;-49
2023/04/16 06:52:55;;;;;;;6.65;4.22;;;20.80;41.00;;;;;;5042545;28;20025;-49
2023/04/16 06:55:20;;;;;;;6.22;3.85;;;20.80;41.00;;;;;;5039310;28;20024;-52
2023/04/16 06:57:46;;;;;;;6.85;4.30;;;20.80;41.00;;;;;;5038191;28;20036;-48
2023/04/16 07:00:12;;;;;;;6.57;4.35;;;20.80;41.00;;;;;;5038009;28;20080;-48
2023/04/16 07:02:38;;;;;;;5.88;3.78;;;20.80;41.00;;;;;;5040537;28;20426;-48
2023/04/16 07:05:04;;;;;;;5.97;3.85;;;20.70;41.00;;;;;;5044699;28;20413;-54
2023/04/16 07:07:30;;;;;;;5.72;3.83;;;20.70;41.00;;;;;;5045851;28;20025;-54
2023/04/16 07:09:56;;;;;;;6.43;3.88;;;20.80;41.10;;;;;;5040645;28;20055;-53
2023/04/16 07:12:22;;;;;;;7.57;4.13;;;20.80;41.10;;;;;;5044345;28;20082;-51
2023/04/16 07:14:47;;;;;;;7.30;4.28;;;20.80;41.10;;;;;;5046883;28;20379;-52
2023/04/16 07:17:13;;;;;;;6.60;3.70;;;20.70;41.10;;;;;;5040987;28;21366;-49
2023/04/16 07:19:39;;;;;;;6.90;4.20;;;20.80;41.20;;;;;;5045615;28;20043;-48
2023/04/16 07:22:05;;;;;;;5.43;3.75;;;20.70;41.20;;;;;;5043207;28;20052;-55
2023/04/16 07:24:31;;;;;;;7.68;3.90;;;20.80;41.20;;;;;;5045136;28;20059;-52
2023/04/16 07:26:57;;;;;;;5.47;3.58;;;20.70;41.10;;;;;;5044420;28;20454;-53
2023/04/16 07:29:23;;;;;;;6.18;4.03;;;20.70;41.10;;;;;;5043692;28;20033;-55
2023/04/16 07:31:49;;;;;;;6.50;3.90;;;20.70;41.10;;;;;;5043930;28;20040;-53
2023/04/16 07:34:14;;;;;;;7.40;4.55;;;20.70;41.10;;;;;;5047332;28;20021;-50
2023/04/16 07:36:40;;;;;;;6.72;4.20;;;20.70;41.10;;;;;;5052051;28;20195;-48
2023/04/16 07:39:06;;;;;;;6.93;4.53;;;20.70;41.10;;;;;;5041994;28;20028;-52
2023/04/16 07:41:32;;;;;;;6.65;4.15;;;20.70;41.10;;;;;;5043493;28;20029;-48
2023/04/16 07:43:58;;;;;;;6.72;4.07;;;20.70;41.10;;;;;;5042861;28;20040;-51
2023/04/16 07:46:24;;;;;;;6.38;3.90;;;20.70;41.10;;;;;;5045858;28;20033;-49
2023/04/16 07:48:50;;;;;;;6.05;3.80;;;20.70;41.10;;;;;;5045926;28;20036;-51
2023/04/16 07:51:16;;;;;;;7.07;4.40;;;20.70;41.10;;;;;;5047367;28;20035;-51
2023/04/16 07:53:42;;;;;;;9.40;4.95;;;20.70;41.10;;;;;;5042638;28;20469;-50
2023/04/16 07:56:08;;;;;;;6.53;3.97;;;20.70;41.00;;;;;;5049501;28;20040;-50
2023/04/16 07:58:34;;;;;;;5.32;3.95;;;20.70;41.00;;;;;;5050637;28;20029;-53
2023/04/16 08:01:00;;;;;;;6.07;4.03;;;20.70;41.00;;;;;;5046953;28;20112;-50
2023/04/16 08:03:26;;;;;;;5.93;4.28;;;20.70;41.00;;;;;;5042189;28;20021;-46
2023/04/16 08:05:52;;;;;;;6.38;3.83;;;20.70;41.10;;;;;;5043385;28;20057;-50
2023/04/16 08:08:17;;;;;;;5.93;4.28;;;20.70;41.10;;;;;;5043474;28;20448;-53
2023/04/16 08:10:43;;;;;;;9.25;4.15;;;20.70;41.10;;;;;;5049678;28;20051;-51
2023/04/16 08:13:09;;;;;;;6.38;4.07;;;20.70;41.10;;;;;;5051118;28;20025;-56
2023/04/16 08:15:35;;;;;;;6.40;4.50;;;20.70;41.20;;;;;;5055906;28;20108;-50
2023/04/16 08:18:01;;;;;;;7.43;4.80;;;20.70;41.20;;;;;;5057210;28;20532;-54
2023/04/16 08:20:27;;;;;;;8.40;4.50;;;20.70;41.20;;;;;;5055568;28;20163;-51
2023/04/16 08:22:53;;;;;;;6.97;4.35;;;20.70;41.80;;;;;;5055405;28;20095;-53
2023/04/16 08:25:19;;;;;;;6.97;4.53;;;20.70;41.20;;;;;;5055256;28;20082;-52
2023/04/16 08:27:45;;;;;;;7.13;4.47;;;20.70;41.20;;;;;;5055774;28;20037;-51
2023/04/16 08:30:11;;;;;;;6.97;4.38;;;20.70;41.20;;;;;;5051109;28;20037;-53
2023/04/16 08:32:37;;;;;;;6.65;4.50;;;20.70;41.20;;;;;;5047032;28;20056;-60
2023/04/16 08:35:03;;;;;;;6.85;4.35;;;20.70;41.30;;;;;;5049241;28;20048;-60
2023/04/16 08:37:29;;;;;;;8.77;4.65;;;20.70;41.30;;;;;;5047691;28;20034;-60
2023/04/16 08:39:55;;;;;;;8.98;4.70;;;20.70;41.20;;;;;;5046193;28;20074;-59
2023/04/16 08:42:29;;;;;;;7.63;4.82;;;20.60;41.00;;;;;;5043458;28;20032;-48
2023/04/16 08:45:11;;;;;;;7.70;4.85;;;20.60;41.00;;;;;;5045575;28;20139;-53
2023/04/16 08:47:38;;;;;;;9.20;4.70;;;20.50;41.00;;;;;;5046753;28;20028;-51
2023/04/16 08:50:04;;;;;;;7.55;4.97;;;20.60;41.20;;;;;;5050256;28;20033;-57
2023/04/16 08:52:31;;;;;;;14.10;7.47;;;20.60;41.40;;;;;;5055229;28;20105;-57
2023/04/16 08:55:00;;;;;;;16.13;8.75;;;20.60;42.20;;;;;;5055194;28;20033;-58
2023/04/16 08:57:33;;;;;;;15.65;8.98;;;20.70;43.60;;;;;;5053478;28;20024;-55
2023/04/16 09:00:00;;;;;;;19.80;9.68;;;20.70;45.10;;;;;;5054620;28;20124;-59
2023/04/16 09:02:26;;;;;;;20.23;9.90;;;20.80;46.10;;;;;;5054750;28;20029;-55
2023/04/16 09:04:53;;;;;;;17.38;9.43;;;20.80;46.70;;;;;;5055803;28;20059;-50
2023/04/16 09:07:20;;;;;;;15.85;9.43;;;20.90;47.80;;;;;;5054129;28;20048;-53
2023/04/16 09:09:48;;;;;;;15.25;9.63;;;20.90;47.60;;;;;;5052087;28;20116;-52
2023/04/16 09:12:14;;;;;;;17.55;10.15;;;21.00;47.90;;;;;;5052512;28;20031;-54
2023/04/16 09:14:41;;;;;;;18.85;10.38;;;21.00;48.00;;;;;;5054286;28;20025;-58
2023/04/16 09:17:08;;;;;;;20.75;10.70;;;21.00;48.30;;;;;;5055398;28;20076;-52
2023/04/16 09:19:34;;;;;;;20.25;12.02;;;21.10;48.90;;;;;;5054710;28;20072;-52
2023/04/16 09:22:00;;;;;;;22.23;14.65;;;21.10;49.90;;;;;;5054283;28;20053;-53
2023/04/16 09:24:27;;;;;;;22.65;14.43;;;21.20;49.70;;;;;;5051552;28;20405;-52
2023/04/16 09:26:54;;;;;;;22.38;13.95;;;21.20;49.90;;;;;;5052957;28;20063;-50
2023/04/16 09:29:36;;;;;;;23.17;13.25;;;21.20;49.80;;;;;;5054404;28;20025;-51
2023/04/16 09:32:03;;;;;;;17.80;11.82;;;21.30;49.80;;;;;;5051322;28;20045;-51
2023/04/16 09:34:32;;;;;;;18.02;10.90;;;21.30;49.50;;;;;;5053851;28;20041;-54
2023/04/16 09:37:18;;;;;;;15.05;9.43;;;21.30;48.90;;;;;;5052463;28;20043;-55
2023/04/16 09:39:51;;;;;;;14.85;9.13;;;21.30;48.30;;;;;;5052879;28;20119;-54
2023/04/16 09:42:30;;;;;;;15.48;8.75;;;21.40;47.90;;;;;;5051890;28;20116;-52
2023/04/16 09:44:57;;;;;;;15.52;8.55;;;21.40;47.40;;;;;;5053593;28;20056;-57
2023/04/16 09:47:25;;;;;;;13.32;7.75;;;21.40;47.00;;;;;;5053421;28;20108;-60
2023/04/16 09:49:51;;;;;;;9.55;6.53;;;21.40;46.50;;;;;;5052487;28;20045;-49
2023/04/16 09:52:19;;;;;;;12.18;6.57;;;21.40;45.70;;;;;;5048376;28;20092;-50
2023/04/16 09:54:50;;;;;;;9.38;6.13;;;21.40;44.80;;;;;;5050304;28;20051;-52
2023/04/16 09:57:21;;;;;;;10.38;6.18;;;21.40;44.40;;;;;;5053538;28;20041;-56
2023/04/16 10:00:07;;;;;;;11.48;6.80;;;21.40;44.40;;;;;;5054231;28;20433;-51
2023/04/16 10:02:34;;;;;;;9.20;6.45;;;21.40;44.50;;;;;;5053201;28;20475;-53
2023/04/16 10:05:07;;;;;;;10.35;6.35;;;21.40;44.40;;;;;;5050927;28;20035;-54
2023/04/16 10:07:34;;;;;;;10.48;6.85;;;21.40;44.30;;;;;;5048677;28;20029;-55
2023/04/16 10:10:01;;;;;;;8.52;5.65;;;21.40;44.20;;;;;;5047942;28;20136;-53
2023/04/16 10:12:28;;;;;;;8.32;5.70;;;21.50;44.10;;;;;;5049044;28;20024;-54
2023/04/16 10:14:54;;;;;;;10.00;6.05;;;21.50;44.00;;;;;;5049329;28;20025;-52
2023/04/16 10:17:20;;;;;;;9.68;5.93;;;21.50;43.80;;;;;;5045954;28;20461;-49
2023/04/16 10:19:47;;;;;;;8.88;5.68;;;21.50;43.70;;;;;;5042804;28;20025;-55
2023/04/16 10:22:13;;;;;;;9.35;6.18;;;21.50;43.60;;;;;;5039000;28;20064;-51
2023/04/16 10:24:40;;;;;;;10.88;6.38;;;21.50;43.50;;;;;;5047635;28;20053;-54
2023/04/16 10:27:06;;;;;;;8.60;5.85;;;21.50;43.30;;;;;;5043903;28;20029;-49
2023/04/16 10:29:33;;;;;;;10.57;6.00;;;21.50;43.20;;;;;;5035225;28;20808;-52
2023/04/16 10:32:00;;;;;;;9.45;5.40;;;21.60;43.20;;;;;;5035323;28;20410;-54
2023/04/16 10:34:27;;;;;;;7.28;5.07;;;21.60;43.10;;;;;;5045896;28;20053;-56
2023/04/16 10:36:54;;;;;;;7.95;4.88;;;21.70;43.00;;;;;;5032414;28;20468;-54
2023/04/16 10:39:22;;;;;;;8.50;5.13;;;21.70;42.80;;;;;;5035550;28;20067;-51
2023/04/16 10:41:49;;;;;;;8.85;5.95;;;21.70;42.70;;;;;;5033227;28;20079;-52
2023/04/16 10:44:18;;;;;;;8.10;5.55;;;21.80;42.70;;;;;;5041660;28;20120;-53
2023/04/16 10:46:51;;;;;;;8.13;4.90;;;21.80;42.70;;;;;;5042299;28;20514;-55
2023/04/16 10:49:19;;;;;;;9.13;5.60;;;21.80;42.60;;;;;;5042586;28;20036;-50
2023/04/16 10:52:06;;;;;;;8.55;5.25;;;21.80;42.50;;;;;;5046358;28;20025;-55
2023/04/16 10:54:34;;;;;;;8.93;5.38;;;21.90;42.50;;;;;;5043012;28;20029;-49
2023/04/16 10:57:15;;;;;;;7.28;5.28;;;21.90;42.40;;;;;;5042032;28;20105;-53
2023/04/16 10:59:43;;;;;;;7.10;5.13;;;21.90;42.30;;;;;;5044924;28;20040;-52
2023/04/16 11:02:14;;;;;;;8.18;5.35;;;21.90;42.20;;;;;;5045232;28;20025;-49
2023/04/16 11:04:43;;;;;;;8.95;5.43;;;21.90;42.00;;;;;;5045534;28;20475;-56
2023/04/16 11:07:18;;;;;;;8.68;5.15;;;22.00;41.90;;;;;;5044842;28;20036;-53
2023/04/16 11:10:04;;;;;;;8.27;4.55;;;22.00;41.80;;;;;;5042706;28;20116;-53
2023/04/16 11:12:40;;;;;;;7.60;4.50;;;22.00;41.70;;;;;;5046167;28;20570;-53
2023/04/16 11:15:15;;;;;;;9.70;4.55;;;22.00;41.60;;;;;;5046699;28;20040;-57
2023/04/16 11:17:44;;;;;;;7.15;4.82;;;22.10;41.60;;;;;;5045145;28;20041;-53
2023/04/16 11:20:19;;;;;;;7.05;4.80;;;22.10;41.40;;;;;;5042374;28;20029;-50
2023/04/16 11:22:46;;;;;;;6.85;4.80;;;22.10;41.30;;;;;;5044334;28;20059;-53
2023/04/16 11:25:12;;;;;;;8.13;4.68;;;22.10;41.30;;;;;;5044082;28;20021;-51
2023/04/16 11:27:37;;;;;;;7.43;4.68;;;22.10;41.30;;;;;;5043781;28;20452;-51
2023/04/16 11:30:07;;;;;;;8.00;5.00;;;22.10;41.30;;;;;;5046170;28;20079;-56
2023/04/16 11:32:39;;;;;;;7.85;5.03;;;22.10;41.30;;;;;;5030941;28;20129;-52
2023/04/16 11:35:18;;;;;;;7.45;4.78;;;22.10;41.30;;;;;;5044862;28;20039;-53
2023/04/16 11:37:45;;;;;;;6.13;4.55;;;22.10;41.30;;;;;;5045523;28;20491;-49
2023/04/16 11:40:11;;;;;;;5.82;4.35;;;22.10;41.20;;;;;;5047233;28;20029;-53
2023/04/16 11:42:39;;;;;;;7.75;4.80;;;22.10;41.30;;;;;;5046275;28;20033;-54
2023/04/16 11:45:07;;;;;;;7.28;4.88;;;22.20;41.20;;;;;;5046003;28;20072;-53
2023/04/16 11:47:45;;;;;;;7.28;4.95;;;22.10;41.20;;;;;;5046962;28;20044;-53
2023/04/16 11:50:26;;;;;;;9.23;4.63;;;22.20;41.20;;;;;;5048626;28;20094;-54
2023/04/16 11:52:56;;;;;;;7.47;4.53;;;22.20;41.10;;;;;;5045086;28;20043;-56
2023/04/16 11:55:22;;;;;;;7.35;4.80;;;22.20;41.10;;;;;;5048620;28;20383;-52
2023/04/16 11:57:49;;;;;;;7.03;4.47;;;22.20;41.10;;;;;;5048268;28;20120;-53
2023/04/16 12:00:15;;;;;;;7.13;5.15;;;22.20;41.10;;;;;;5050377;28;20095;-50
2023/04/16 12:02:48;;;;;;;8.68;4.95;;;22.20;41.10;;;;;;5044312;28;20033;-49
2023/04/16 12:05:34;;;;;;;8.57;5.03;;;22.20;41.10;;;;;;5049971;28;20021;-49
2023/04/16 12:08:02;;;;;;;7.70;4.80;;;22.20;41.10;;;;;;5045816;28;20364;-50
2023/04/16 12:10:29;;;;;;;6.93;4.57;;;22.20;41.10;;;;;;5049273;28;20029;-52
2023/04/16 12:13:16;;;;;;;7.47;4.80;;;22.20;41.10;;;;;;5045996;28;20064;-49
2023/04/16 12:15:49;;;;;;;6.40;4.60;;;22.20;41.00;;;;;;5050661;28;20039;-49
2023/04/16 12:18:16;;;;;;;6.28;4.55;;;22.30;41.10;;;;;;5045718;28;20031;-53
2023/04/16 12:20:43;;;;;;;7.43;5.03;;;22.20;41.00;;;;;;5049912;28;20041;-51
2023/04/16 12:23:31;;;;;;;7.97;4.95;;;22.30;41.10;;;;;;5047629;28;20832;-54
2023/04/16 12:26:01;;;;;;;8.00;4.80;;;22.20;41.00;;;;;;5047827;28;20029;-55
2023/04/16 12:28:31;;;;;;;8.65;4.60;;;22.20;41.00;;;;;;5043801;28;20080;-54
2023/04/16 12:30:57;;;;;;;7.45;4.72;;;22.20;41.00;;;;;;5049573;28;20025;-51
2023/04/16 12:33:24;;;;;;;7.55;4.75;;;22.20;40.90;;;;;;5048394;28;20480;-59
2023/04/16 12:35:51;;;;;;;7.32;4.90;;;22.30;40.90;;;;;;5045700;28;20463;-56
2023/04/16 12:38:17;;;;;;;7.65;4.97;;;22.30;40.90;;;;;;5046196;28;20049;-54
2023/04/16 12:40:44;;;;;;;6.88;4.90;;;22.30;40.90;;;;;;5046848;28;20117;-55
2023/04/16 12:43:10;;;;;;;7.45;4.68;;;22.30;40.90;;;;;;5047841;28;20034;-53
2023/04/16 12:45:37;;;;;;;5.93;4.13;;;22.30;40.80;;;;;;5042404;28;20041;-52